Time;durP1;ratioP1;P1;durP2;ratioP2;P2;SDS_P1;SDS_P2;PMS_P1;PMS_P2;Temp;Humidity;BMP_temperature;BMP_pressure;BME280_temperature;BME280_humidity;BME280_pressure;Samples;Min_cycle;Max_cycle;Signal;HPM_P1;HPM_P2
2024/01/19 00:02:18;;;;;;;9.50;3.35;;;;;;;-1.74;100.00;100734.50;4942976;28;20055;-73
2024/01/19 00:04:44;;;;;;;5.63;2.65;;;;;;;-1.71;100.00;100733.28;4961761;28;20089;-75
2024/01/19 00:07:10;;;;;;;6.90;3.00;;;;;;;-1.71;100.00;100733.28;4967141;28;20042;-74
2024/01/19 00:09:35;;;;;;;6.03;2.83;;;;;;;-1.68;100.00;100732.94;4940939;28;20897;-77
2024/01/19 00:12:02;;;;;;;8.10;2.80;;;;;;;-1.60;100.00;100743.28;4958767;28;20034;-74
2024/01/19 00:14:29;;;;;;;6.70;2.35;;;;;;;-1.47;100.00;100739.97;4956366;28;20885;-79
2024/01/19 00:16:55;;;;;;;7.45;2.60;;;;;;;-1.38;100.00;100750.13;4962085;28;20149;-79
2024/01/19 00:19:20;;;;;;;7.15;3.05;;;;;;;-1.34;100.00;100747.13;4938145;28;20035;-79
2024/01/19 00:21:47;;;;;;;6.43;2.72;;;;;;;-1.37;100.00;100743.06;4936322;28;20035;-79
2024/01/19 00:24:13;;;;;;;6.47;2.55;;;;;;;-1.34;100.00;100760.28;4959281;28;20047;-78
2024/01/19 00:26:39;;;;;;;6.43;3.10;;;;;;;-1.34;100.00;100761.06;4938664;28;20070;-79
2024/01/19 00:29:06;;;;;;;4.28;2.10;;;;;;;-1.30;100.00;100762.31;4955937;28;20032;-81
2024/01/19 00:31:34;;;;;;;6.80;2.83;;;;;;;-1.29;100.00;100771.00;4942018;28;20134;-82
2024/01/19 00:33:59;;;;;;;7.22;3.42;;;;;;;-1.32;100.00;100766.13;4946530;28;20416;-80
2024/01/19 00:36:25;;;;;;;6.65;3.40;;;;;;;-1.34;100.00;100766.34;5346793;23;20026;-79
2024/01/19 00:38:52;;;;;;;6.35;3.58;;;;;;;-1.43;100.00;100777.97;4938669;28;20765;-78
2024/01/19 00:41:18;;;;;;;9.10;3.33;;;;;;;-1.47;100.00;100774.91;4962149;28;20046;-77
2024/01/19 00:43:43;;;;;;;8.95;4.20;;;;;;;-1.56;100.00;100768.16;4947333;28;20108;-76
2024/01/19 00:46:10;;;;;;;12.82;3.80;;;;;;;-1.65;100.00;100756.97;4943088;28;20026;-83
2024/01/19 00:48:37;;;;;;;9.13;3.60;;;;;;;-1.64;100.00;100755.16;4936451;28;20055;-81
2024/01/19 00:51:03;;;;;;;7.30;3.10;;;;;;;-1.64;100.00;100755.16;4942921;28;20093;-83
2024/01/19 00:53:28;;;;;;;6.38;3.22;;;;;;;-1.59;100.00;100741.47;4956932;28;20048;-82
2024/01/19 00:55:55;;;;;;;6.07;2.60;;;;;;;-1.61;100.00;100739.03;4945254;28;20055;-83
2024/01/19 00:58:21;;;;;;;6.60;2.35;;;;;;;-1.61;100.00;100736.41;4937177;28;20032;-82
2024/01/19 01:00:46;;;;;;;7.03;2.70;;;;;;;-1.63;100.00;100735.78;4940223;28;20063;-83
2024/01/19 01:03:22;;;;;;;4.72;2.20;;;;;;;-1.61;100.00;100738.25;4919187;28;20063;-81
2024/01/19 01:05:48;;;;;;;4.85;2.17;;;;;;;-1.63;100.00;100737.59;4953079;28;20043;-83
2024/01/19 01:08:13;;;;;;;5.30;2.30;;;;;;;-1.64;100.00;100734.16;4927286;28;20039;-80
2024/01/19 01:10:39;;;;;;;3.47;2.10;;;;;;;-1.65;100.00;100758.78;4952136;28;20038;-83
2024/01/19 01:13:04;;;;;;;4.25;2.00;;;;;;;-1.67;100.00;100760.81;4940551;28;20030;-77
2024/01/19 01:15:30;;;;;;;6.43;2.22;;;;;;;-1.70;100.00;100761.16;4936081;28;20046;-78
2024/01/19 01:17:56;;;;;;;4.07;1.77;;;;;;;-1.69;100.00;100770.69;4940190;28;20038;-79
2024/01/19 01:20:21;;;;;;;2.15;1.38;;;;;;;-1.66;100.00;100772.94;4954329;28;20429;-78
2024/01/19 01:22:47;;;;;;;5.63;1.60;;;;;;;-1.66;100.00;100773.75;4936993;28;20050;-78
2024/01/19 01:25:13;;;;;;;4.57;1.75;;;;;;;-1.66;100.00;100772.94;4957220;28;20058;-79
2024/01/19 01:27:39;;;;;;;5.25;2.60;;;;;;;-1.69;100.00;100778.56;4934844;28;20134;-80
2024/01/19 01:30:07;;;;;;;5.25;1.92;;;;;;;-1.71;100.00;100770.88;4945474;28;20082;-79
2024/01/19 01:32:34;;;;;;;5.20;2.28;;;;;;;-1.70;100.00;100776.91;4933610;28;20079;-79
2024/01/19 01:34:59;;;;;;;8.57;2.08;;;;;;;-1.71;100.00;100797.13;4950667;28;20404;-79
2024/01/19 01:37:26;;;;;;;5.18;2.28;;;;;;;-1.65;100.00;100806.06;4950822;28;20043;-79
2024/01/19 01:39:52;;;;;;;4.80;1.90;;;;;;;-1.58;100.00;100814.81;4923332;28;20043;-79
2024/01/19 01:42:17;;;;;;;5.28;1.75;;;;;;;-1.49;100.00;100810.25;4951408;28;20696;-79
2024/01/19 01:44:43;;;;;;;4.47;2.03;;;;;;;-1.48;100.00;100823.22;4935012;28;20043;-79
2024/01/19 01:47:08;;;;;;;6.22;2.20;;;;;;;-1.46;100.00;100830.88;4936702;28;20035;-79
2024/01/19 01:49:34;;;;;;;4.65;2.42;;;;;;;-1.48;100.00;100817.94;4932745;28;20031;-78
2024/01/19 01:52:00;;;;;;;4.00;1.58;;;;;;;-1.41;100.00;100813.56;4958557;28;20562;-81
2024/01/19 01:54:26;;;;;;;4.38;2.00;;;;;;;-1.32;100.00;100821.31;4944698;28;20074;-77
2024/01/19 01:56:53;;;;;;;5.63;2.10;;;;;;;-1.31;100.00;100818.50;4952043;28;20063;-80
2024/01/19 01:59:19;;;;;;;6.10;2.10;;;;;;;-1.31;100.00;100802.72;4937437;28;20926;-81
2024/01/19 02:01:46;;;;;;;7.72;2.25;;;;;;;-1.30;100.00;100803.53;4939634;28;20039;-79
2024/01/19 02:04:12;;;;;;;5.85;2.00;;;;;;;-1.35;100.00;100800.66;4931324;28;20054;-81
2024/01/19 02:06:39;;;;;;;9.77;2.55;;;;;;;-1.30;100.00;100801.72;4957022;28;20038;-79
2024/01/19 02:09:07;;;;;;;4.70;1.92;;;;;;;-1.31;100.00;100801.91;4940773;28;20039;-79
2024/01/19 02:11:33;;;;;;;3.35;1.70;;;;;;;-1.32;100.00;100789.78;4953435;28;20039;-80
2024/01/19 02:13:59;;;;;;;5.13;1.85;;;;;;;-1.30;100.00;100787.78;4939819;28;20038;-79
2024/01/19 02:16:24;;;;;;;5.50;1.95;;;;;;;-1.34;100.00;100773.41;4952561;28;20500;-80
2024/01/19 02:18:53;;;;;;;3.75;2.35;;;;;;;-1.38;100.00;100760.63;4938908;28;20128;-80
2024/01/19 02:21:20;;;;;;;8.38;2.28;;;;;;;-1.37;100.00;100777.22;4948311;28;20566;-78
2024/01/19 02:24:12;;;;;;;7.97;2.33;;;;;;;-1.35;100.00;100775.22;4956348;28;20035;-78
2024/01/19 02:26:38;;;;;;;3.80;1.85;;;;;;;-1.37;100.00;100764.88;4945316;28;20031;-79
2024/01/19 02:29:04;;;;;;;3.28;1.33;;;;;;;-1.41;100.00;100771.53;4951937;28;20896;-79
2024/01/19 02:31:30;;;;;;;5.20;1.70;;;;;;;-1.43;100.00;100768.25;4941837;28;20035;-77
2024/01/19 02:33:56;;;;;;;5.45;1.75;;;;;;;-1.45;100.00;100774.72;4939432;28;20035;-79
2024/01/19 02:36:22;;;;;;;4.75;1.70;;;;;;;-1.45;100.00;100774.72;4958348;28;20452;-79
2024/01/19 02:38:48;;;;;;;3.78;1.70;;;;;;;-1.49;100.00;100782.19;4942739;28;20035;-79
2024/01/19 02:41:14;;;;;;;2.97;1.52;;;;;;;-1.49;100.00;100784.81;4954146;28;20082;-79
2024/01/19 02:43:40;;;;;;;8.85;2.45;;;;;;;-1.51;100.00;100784.16;4951943;28;20043;-79
2024/01/19 02:46:06;;;;;;;4.47;1.52;;;;;;;-1.53;100.00;100782.75;4933670;28;20504;-77
2024/01/19 02:48:31;;;;;;;4.80;1.48;;;;;;;-1.54;100.00;100781.94;4910466;28;20130;-79
2024/01/19 02:50:57;;;;;;;4.05;1.20;;;;;;;-1.52;100.00;100774.66;4943993;28;20039;-80
2024/01/19 02:53:23;;;;;;;5.03;1.40;;;;;;;-1.50;100.00;100782.34;4942713;28;20050;-78
2024/01/19 02:55:49;;;;;;;6.30;2.00;;;;;;;-1.55;100.00;100782.94;4935017;28;20038;-80
2024/01/19 02:58:15;;;;;;;2.90;1.60;;;;;;;-1.55;100.00;100796.06;4952298;28;20038;-78
2024/01/19 03:00:41;;;;;;;6.35;1.80;;;;;;;-1.56;100.00;100789.16;4932072;28;20035;-78
2024/01/19 03:03:07;;;;;;;5.13;1.50;;;;;;;-1.51;100.00;100799.13;4958192;28;20034;-80
2024/01/19 03:05:32;;;;;;;3.83;1.40;;;;;;;-1.44;100.00;100811.31;4937610;28;20039;-79
2024/01/19 03:07:58;;;;;;;4.25;1.33;;;;;;;-1.41;100.00;100808.31;4956450;28;20666;-80
2024/01/19 03:10:24;;;;;;;6.68;1.35;;;;;;;-1.41;100.00;100802.25;4940704;28;20039;-80
2024/01/19 03:12:50;;;;;;;5.55;1.95;;;;;;;-1.40;100.00;100811.75;4939740;28;20131;-80
2024/01/19 03:15:15;;;;;;;3.05;1.50;;;;;;;-1.40;100.00;100809.94;4952564;28;20039;-81
2024/01/19 03:17:41;;;;;;;6.93;1.80;;;;;;;-1.36;100.00;100810.34;4956582;28;20034;-81
2024/01/19 03:20:07;;;;;;;4.00;1.40;;;;;;;-1.31;100.00;100807.97;4954439;28;20170;-77
2024/01/19 03:22:33;;;;;;;4.50;1.23;;;;;;;-1.28;100.00;100809.44;4961194;28;20245;-77
2024/01/19 03:25:18;;;;;;;3.97;1.63;;;;;;;-1.21;100.00;100818.19;4951939;28;20054;-78
2024/01/19 03:27:43;;;;;;;4.63;1.55;;;;;;;-1.17;100.00;100824.66;4928427;28;20031;-79
2024/01/19 03:30:10;;;;;;;4.80;1.50;;;;;;;-1.14;100.00;100829.56;4935005;28;20074;-80
2024/01/19 03:32:35;;;;;;;2.92;1.25;;;;;;;-1.13;100.00;100837.25;4955092;28;20026;-79
2024/01/19 03:35:01;;;;;;;3.33;1.40;;;;;;;-1.09;100.00;100827.13;4937340;28;20093;-79
2024/01/19 03:37:28;;;;;;;5.40;2.13;;;;;;;-1.11;100.00;100826.53;4953589;28;20031;-80
2024/01/19 03:39:53;;;;;;;5.65;1.80;;;;;;;-1.12;100.00;100833.59;4952430;28;20046;-77
2024/01/19 03:42:19;;;;;;;2.90;1.27;;;;;;;-1.15;100.00;100822.69;4953662;28;20504;-80
2024/01/19 03:44:45;;;;;;;3.53;1.88;;;;;;;-1.19;100.00;100829.31;4952983;28;20057;-78
2024/01/19 03:47:11;;;;;;;3.45;1.58;;;;;;;-1.19;100.00;100821.41;4928890;28;20046;-80
2024/01/19 03:49:37;;;;;;;4.50;1.25;;;;;;;-1.20;100.00;100825.88;4933173;28;20039;-81
2024/01/19 03:52:04;;;;;;;5.85;1.77;;;;;;;-1.24;100.00;100823.78;4919026;28;20116;-80
2024/01/19 03:54:32;;;;;;;6.55;1.40;;;;;;;-1.27;100.00;100826.81;4959289;28;20206;-79
2024/01/19 03:57:00;;;;;;;8.23;2.25;;;;;;;-1.30;100.00;100820.09;4962518;28;20571;-77
2024/01/19 03:59:26;;;;;;;5.57;1.30;;;;;;;-1.29;100.00;100816.47;4932722;28;20607;-78
2024/01/19 04:01:52;;;;;;;3.85;1.42;;;;;;;-1.30;100.00;100809.59;4959354;28;20043;-79
2024/01/19 04:04:18;;;;;;;3.95;1.42;;;;;;;-1.27;100.00;100818.94;4930015;28;20043;-80
2024/01/19 04:06:43;;;;;;;9.15;1.98;;;;;;;-1.25;100.00;100816.91;4954220;28;20719;-79
2024/01/19 04:09:09;;;;;;;4.63;1.38;;;;;;;-1.26;100.00;100829.25;4939764;28;20347;-78
2024/01/19 04:11:39;;;;;;;4.63;1.55;;;;;;;-1.25;100.00;100833.50;4937978;28;20086;-79
2024/01/19 04:14:04;;;;;;;3.97;1.33;;;;;;;-1.30;100.00;100838.50;4957429;28;20139;-79
2024/01/19 04:16:31;;;;;;;;;;;;;;;-1.25;100.00;100845.81;4952859;28;20034;-78
2024/01/19 04:18:56;;;;;;;5.55;1.98;;;;;;;-1.27;100.00;100848.66;4946814;28;19922;-79
2024/01/19 04:21:22;;;;;;;3.10;1.15;;;;;;;-1.20;100.00;100848.72;4960601;28;20069;-78
2024/01/19 04:23:48;;;;;;;4.40;1.63;;;;;;;-1.17;100.00;100853.56;4935648;28;20058;-79
2024/01/19 04:26:14;;;;;;;4.50;1.08;;;;;;;-1.16;100.00;100850.75;4951820;28;20060;-80
2024/01/19 04:28:40;;;;;;;4.47;1.17;;;;;;;-1.14;100.00;100855.84;4928219;28;20575;-80
2024/01/19 04:31:06;;;;;;;5.72;1.13;;;;;;;-1.17;100.00;100845.69;4955182;28;20042;-77
2024/01/19 04:33:32;;;;;;;2.75;1.00;;;;;;;-1.19;100.00;100843.25;4938836;28;20042;-76
2024/01/19 04:35:58;;;;;;;2.33;1.20;;;;;;;-1.23;100.00;100844.63;4926938;28;20038;-80
2024/01/19 04:38:24;;;;;;;3.40;1.08;;;;;;;-1.22;100.00;100848.91;4940583;28;20057;-79
2024/01/19 04:40:49;;;;;;;2.03;1.35;;;;;;;-1.26;100.00;100852.09;4935811;28;20094;-78
2024/01/19 04:43:15;;;;;;;4.63;1.75;;;;;;;-1.22;100.00;100858.56;4938209;28;20031;-79
2024/01/19 04:45:41;;;;;;;4.35;1.40;;;;;;;-1.22;100.00;100863.81;4952405;28;20042;-79
2024/01/19 04:48:06;;;;;;;8.50;1.50;;;;;;;-1.23;100.00;100870.09;4959589;28;20042;-79
2024/01/19 04:50:32;;;;;;;5.90;1.30;;;;;;;-1.25;100.00;100865.03;4923466;28;20067;-80
2024/01/19 04:52:57;;;;;;;4.80;1.50;;;;;;;-1.22;100.00;100879.59;4956418;28;20465;-78
2024/01/19 04:55:24;;;;;;;6.28;1.30;;;;;;;-1.24;100.00;100877.16;4960849;28;20038;-80
2024/01/19 04:57:50;;;;;;;5.07;1.60;;;;;;;-1.21;100.00;100868.91;4946772;28;20460;-79
2024/01/19 05:00:15;;;;;;;4.53;1.33;;;;;;;-1.19;100.00;100885.31;4942186;28;20094;-79
2024/01/19 05:02:42;;;;;;;6.75;1.50;;;;;;;-1.16;100.00;100889.34;4954813;28;20063;-77
2024/01/19 05:05:09;;;;;;;3.35;0.93;;;;;;;-1.12;100.00;100895.88;4952772;28;20033;-79
2024/01/19 05:07:35;;;;;;;6.63;1.70;;;;;;;-1.11;100.00;100903.56;4959714;28;20038;-81
2024/01/19 05:10:01;;;;;;;3.63;1.50;;;;;;;-1.09;100.00;100900.75;4941194;28;20097;-78
2024/01/19 05:12:27;;;;;;;3.08;1.30;;;;;;;-1.10;100.00;100897.31;4940062;28;20071;-81
2024/01/19 05:14:53;;;;;;;6.88;1.90;;;;;;;-1.11;100.00;100897.50;4953311;28;20043;-78
2024/01/19 05:17:18;;;;;;;2.30;1.48;;;;;;;-1.08;100.00;100910.28;4951357;28;20031;-80
2024/01/19 05:19:44;;;;;;;3.63;1.55;;;;;;;-1.11;100.00;100918.53;4950111;28;20145;-81
2024/01/19 05:22:10;;;;;;;3.20;1.58;;;;;;;-1.15;100.00;100927.81;4940288;28;20042;-80
2024/01/19 05:24:43;;;;;;;3.78;1.50;;;;;;;-1.20;100.00;100940.69;4924801;28;20121;-79
2024/01/19 05:27:10;;;;;;;4.20;1.67;;;;;;;-1.20;100.00;100932.81;4938170;28;20117;-78
2024/01/19 05:29:35;;;;;;;8.40;1.60;;;;;;;-1.15;100.00;100938.31;4950295;28;20041;-79
2024/01/19 05:32:02;;;;;;;5.22;1.50;;;;;;;-1.14;100.00;100940.75;4954550;28;20039;-77
2024/01/19 05:34:27;;;;;;;11.15;2.08;;;;;;;-1.13;100.00;100938.94;4933092;28;20053;-80
2024/01/19 05:36:53;;;;;;;5.15;1.45;;;;;;;-1.07;100.00;100956.59;4943274;28;20046;-79
2024/01/19 05:39:19;;;;;;;3.92;1.38;;;;;;;-1.04;100.00;100950.13;4923681;28;20035;-79
2024/01/19 05:41:45;;;;;;;5.63;1.50;;;;;;;-1.00;100.00;100941.69;4940296;28;20507;-78
2024/01/19 05:44:11;;;;;;;5.40;1.48;;;;;;;-1.02;100.00;100953.38;4957604;28;20112;-79
2024/01/19 05:46:37;;;;;;;10.48;1.50;;;;;;;-1.04;100.00;100950.94;4954891;28;20039;-79
2024/01/19 05:49:03;;;;;;;3.97;1.50;;;;;;;-1.07;100.00;100956.59;4952213;28;20042;-79
2024/01/19 05:51:28;;;;;;;4.22;1.05;;;;;;;-1.08;100.00;100954.97;4953977;28;20035;-79
2024/01/19 05:53:54;;;;;;;5.88;1.70;;;;;;;-1.12;100.00;100957.13;4936943;28;20447;-79
2024/01/19 05:56:20;;;;;;;4.75;1.20;;;;;;;-1.13;100.00;100952.88;4912825;28;20632;-78
2024/01/19 05:58:46;;;;;;;2.22;1.02;;;;;;;-1.12;100.00;100953.69;4941589;28;20050;-78
2024/01/19 06:01:12;;;;;;;3.95;1.10;;;;;;;-1.12;100.00;100948.44;4951113;28;20034;-79
2024/01/19 06:03:38;;;;;;;3.95;1.10;;;;;;;-1.13;100.00;100952.88;4922039;28;20097;-77
2024/01/19 06:06:04;;;;;;;;;;;;;;;-1.10;100.00;100983.22;4940317;28;20043;-76
2024/01/19 06:08:31;;;;;;;4.85;0.95;;;;;;;-1.08;100.00;100991.75;4936430;28;20383;-77
2024/01/19 06:10:57;;;;;;;2.88;1.15;;;;;;;-1.03;100.00;100989.34;4934984;28;20098;-79
2024/01/19 06:13:23;;;;;;;2.17;0.80;;;;;;;-0.98;100.00;100997.50;4929031;28;20475;-78
2024/01/19 06:15:50;;;;;;;3.20;1.20;;;;;;;-0.95;100.00;100991.88;4937827;28;20474;-77
2024/01/19 06:18:16;;;;;;;4.05;1.20;;;;;;;-0.94;100.00;101000.59;4935287;28;20311;-80
2024/01/19 06:20:42;;;;;;;3.35;1.30;;;;;;;-0.90;100.00;101000.00;4940788;28;20138;-79
2024/01/19 06:23:10;;;;;;;3.97;1.73;;;;;;;-0.88;100.00;101008.53;4943895;28;20054;-78
2024/01/19 06:25:36;;;;;;;5.65;0.88;;;;;;;-0.91;100.00;101019.41;4921183;28;20519;-79
2024/01/19 06:28:02;;;;;;;3.15;1.50;;;;;;;-0.94;100.00;101030.31;4950010;28;20546;-79
2024/01/19 06:30:30;;;;;;;3.15;0.93;;;;;;;-0.99;100.00;101035.31;4951473;28;20050;-81
2024/01/19 06:32:55;;;;;;;4.95;1.95;;;;;;;-1.02;100.00;101045.38;4938114;28;20078;-75
2024/01/19 06:35:22;;;;;;;2.28;0.70;;;;;;;-1.12;100.00;101037.81;4937306;28;20035;-73
2024/01/19 06:37:47;;;;;;;2.25;1.00;;;;;;;-1.13;100.00;101055.38;4942296;28;20385;-74
2024/01/19 06:40:14;;;;;;;6.28;0.90;;;;;;;-1.13;100.00;101057.22;4944391;28;20041;-73
2024/01/19 06:42:41;;;;;;;3.28;0.80;;;;;;;-1.13;100.00;101047.50;4936688;28;20063;-73
2024/01/19 06:45:07;;;;;;;3.25;1.50;;;;;;;-1.09;100.00;101058.44;4925098;28;20161;-75
2024/01/19 06:47:34;;;;;;;3.85;1.75;;;;;;;-1.10;100.00;101067.34;4942317;28;20103;-75
2024/01/19 06:50:00;;;;;;;3.22;1.35;;;;;;;-1.08;100.00;101060.09;4927087;28;20039;-77
2024/01/19 06:52:25;;;;;;;1.60;0.60;;;;;;;-1.10;100.00;101075.22;4925455;28;20035;-79
2024/01/19 06:54:51;;;;;;;4.18;0.95;;;;;;;-1.06;100.00;101073.88;4944932;28;20046;-76
2024/01/19 06:57:17;;;;;;;2.35;1.00;;;;;;;-1.07;100.00;101080.13;4959101;28;20047;-78
2024/01/19 06:59:42;;;;;;;3.80;0.70;;;;;;;-1.07;100.00;101077.50;4928513;28;20042;-76
2024/01/19 07:02:08;;;;;;;1.90;1.33;;;;;;;-1.05;100.00;101090.44;4961435;28;20034;-81
2024/01/19 07:04:33;;;;;;;2.45;1.10;;;;;;;-1.04;100.00;101086.81;4928031;28;20038;-79
2024/01/19 07:07:00;;;;;;;3.55;1.27;;;;;;;-1.04;100.00;101092.88;4941298;28;20562;-78
2024/01/19 07:09:29;;;;;;;3.17;1.00;;;;;;;-1.03;100.00;101091.06;4964426;28;20038;-79
2024/01/19 07:11:56;;;;;;;3.45;1.30;;;;;;;-1.03;100.00;101105.03;4969217;28;20285;-76
2024/01/19 07:14:21;;;;;;;3.05;1.00;;;;;;;-1.03;100.00;101089.25;4956097;28;20038;-76
2024/01/19 07:16:47;;;;;;;2.45;1.20;;;;;;;-1.01;100.00;101099.59;4944444;28;20039;-76
2024/01/19 07:19:14;;;;;;;4.07;1.02;;;;;;;-1.00;100.00;101109.94;4946669;28;21172;-77
2024/01/19 07:21:40;;;;;;;6.80;1.13;;;;;;;-0.99;100.00;101108.13;4927352;28;20121;-77
2024/01/19 07:24:08;;;;;;;4.43;1.48;;;;;;;-1.03;100.00;101115.53;4942009;28;20494;-76
2024/01/19 07:26:35;;;;;;;4.05;1.35;;;;;;;-1.07;100.00;101111.66;4956707;28;20046;-74
2024/01/19 07:29:04;;;;;;;4.50;1.42;;;;;;;-1.08;100.00;101117.94;4946154;28;20039;-74
2024/01/19 07:31:31;;;;;;;6.15;1.60;;;;;;;-1.11;100.00;101121.72;4962174;28;20035;-76
2024/01/19 07:33:56;;;;;;;2.85;1.40;;;;;;;-1.13;100.00;101120.28;4943672;28;20031;-76
2024/01/19 07:36:22;;;;;;;5.93;1.65;;;;;;;-1.16;100.00;101120.63;4929284;28;20047;-76
2024/01/19 07:38:48;;;;;;;5.30;1.55;;;;;;;-1.16;100.00;101125.88;4944031;28;20042;-75
2024/01/19 07:41:14;;;;;;;7.50;2.17;;;;;;;-1.22;100.00;101129.25;4962198;28;20031;-74
2024/01/19 07:43:39;;;;;;;3.15;1.42;;;;;;;-1.20;100.00;101137.78;4937544;28;20031;-75
2024/01/19 07:46:05;;;;;;;7.22;1.95;;;;;;;-1.19;100.00;101134.16;4956426;28;20047;-72
2024/01/19 07:48:31;;;;;;;8.98;2.10;;;;;;;-1.18;100.00;101143.66;4940559;28;20043;-73
2024/01/19 07:50:57;;;;;;;6.45;1.50;;;;;;;-1.14;100.00;101158.09;4957732;28;20122;-75
2024/01/19 07:53:23;;;;;;;3.08;1.15;;;;;;;-1.15;100.00;101164.34;4945098;28;20062;-74
2024/01/19 07:55:48;;;;;;;3.88;1.67;;;;;;;-1.12;100.00;101163.97;4961775;28;20035;-76
2024/01/19 07:58:14;;;;;;;5.15;2.00;;;;;;;-1.12;100.00;101171.84;4939767;28;20031;-75
2024/01/19 08:00:40;;;;;;;5.38;1.50;;;;;;;-1.07;100.00;101169.50;4959308;28;20039;-73
2024/01/19 08:03:05;;;;;;;10.60;2.08;;;;;;;-1.06;100.00;101173.75;4928312;28;20043;-74
2024/01/19 08:05:31;;;;;;;4.07;1.48;;;;;;;-1.05;100.00;101185.09;4955796;28;20054;-75
2024/01/19 08:07:57;;;;;;;4.10;1.10;;;;;;;-1.06;100.00;101189.53;4942123;28;20039;-75
2024/01/19 08:10:23;;;;;;;5.82;1.70;;;;;;;-1.04;100.00;101182.25;4959911;28;20046;-75
2024/01/19 08:12:49;;;;;;;4.82;1.55;;;;;;;-1.03;100.00;101188.34;4943234;28;20322;-75
2024/01/19 08:15:14;;;;;;;8.20;2.05;;;;;;;-1.04;100.00;101186.72;4941770;28;20053;-77
2024/01/19 08:17:40;;;;;;;7.40;1.85;;;;;;;-1.02;100.00;101182.88;4937089;28;20031;-75
2024/01/19 08:20:10;;;;;;;5.85;2.53;;;;;;;-1.00;100.00;101201.94;4941251;28;20808;-76
2024/01/19 08:22:37;;;;;;;3.85;1.58;;;;;;;-1.01;100.00;101205.56;4957769;28;20039;-75
2024/01/19 08:25:04;;;;;;;4.90;1.50;;;;;;;-0.99;100.00;101198.31;4958966;28;20035;-76
2024/01/19 08:27:30;;;;;;;6.50;2.17;;;;;;;-0.98;100.00;101207.84;4924476;28;20039;-75
2024/01/19 08:29:56;;;;;;;6.45;1.80;;;;;;;-1.01;100.00;101207.41;4958267;28;20509;-76
2024/01/19 08:32:25;;;;;;;4.60;1.60;;;;;;;-1.01;100.00;101213.47;4948320;28;20564;-75
2024/01/19 08:34:50;;;;;;;5.38;1.48;;;;;;;-1.00;100.00;101219.53;4939780;28;20185;-76
2024/01/19 08:37:17;;;;;;;5.32;1.73;;;;;;;-0.99;100.00;101227.22;4959642;28;20523;-77
2024/01/19 08:39:45;;;;;;;3.92;1.17;;;;;;;-0.96;100.00;101226.84;4946145;28;20035;-81
2024/01/19 08:42:11;;;;;;;6.13;2.22;;;;;;;-0.92;100.00;101229.94;4930846;28;20031;-79
2024/01/19 08:44:37;;;;;;;5.43;1.58;;;;;;;-0.92;100.00;101237.84;4940455;28;20041;-77
2024/01/19 08:47:04;;;;;;;4.45;1.73;;;;;;;-0.89;100.00;101242.72;4961687;28;20070;-79
2024/01/19 08:49:30;;;;;;;4.07;1.40;;;;;;;-0.86;100.00;101248.44;4968394;28;20062;-78
2024/01/19 08:51:55;;;;;;;5.97;1.50;;;;;;;-0.83;100.00;101245.44;4948628;28;20038;-78
2024/01/19 08:54:22;;;;;;;7.32;1.40;;;;;;;-0.77;100.00;101243.09;4948510;28;20039;-77
2024/01/19 08:56:47;;;;;;;4.10;1.85;;;;;;;-0.73;100.00;101247.81;4952983;28;20035;-78
2024/01/19 08:59:13;;;;;;;6.13;1.95;;;;;;;-0.70;100.00;101250.06;4965842;28;21011;-81
2024/01/19 09:01:39;;;;;;;5.80;1.60;;;;;;;-0.67;100.00;101251.53;4962728;28;20077;-80
2024/01/19 09:04:04;;;;;;;6.28;1.75;;;;;;;-0.63;100.00;101260.66;4947582;28;20070;-76
2024/01/19 09:06:30;;;;;;;6.13;1.30;;;;;;;-0.60;100.00;101260.31;4963962;28;20034;-77
2024/01/19 09:09:01;;;;;;;6.10;1.42;;;;;;;-0.57;100.00;101258.13;4944891;28;20047;-77
2024/01/19 09:11:27;;;;;;;6.50;1.58;;;;;;;-0.53;100.00;101263.84;4963667;28;20059;-80
2024/01/19 09:13:52;;;;;;;11.50;1.80;;;;;;;-0.51;100.00;101256.56;4960496;28;20436;-79
2024/01/19 09:16:18;;;;;;;4.18;2.00;;;;;;;-0.50;100.00;101252.13;4972699;28;20027;-75
2024/01/19 09:18:44;;;;;;;5.68;1.63;;;;;;;-0.48;100.00;101269.34;4965269;28;20058;-77
2024/01/19 09:21:16;;;;;;;7.20;1.98;;;;;;;-0.43;100.00;101267.00;4960516;28;20578;-82
2024/01/19 09:23:42;;;;;;;5.50;1.52;;;;;;;-0.39;100.00;101278.78;4962518;28;20039;-77
2024/01/19 09:26:16;;;;;;;8.68;2.45;;;;;;;-0.26;100.00;101285.22;4929785;28;20624;-78
2024/01/19 09:28:42;;;;;;;4.30;1.42;;;;;;;-0.18;100.00;101295.63;4946997;28;20562;-76
2024/01/19 09:31:07;;;;;;;3.15;1.60;;;;;;;-0.11;100.00;101299.97;4958450;28;20035;-81
2024/01/19 09:33:33;;;;;;;7.28;1.52;;;;;;;-0.15;100.00;101298.69;4941740;28;20543;-76
2024/01/19 09:35:59;;;;;;;6.03;1.70;;;;;;;-0.16;100.00;101306.78;4957177;28;20050;-77
2024/01/19 09:38:25;;;;;;;7.88;1.88;;;;;;;-0.19;100.00;101315.06;4957924;28;20507;-78
2024/01/19 09:41:03;;;;;;;5.53;1.80;;;;;;;-0.20;100.00;101323.94;4965669;28;20062;-79
2024/01/19 09:43:34;;;;;;;8.63;1.95;;;;;;;-0.20;100.00;101331.84;4934285;28;20043;-75
2024/01/19 09:46:06;;;;;;;7.50;2.00;;;;;;;-0.25;100.00;101324.50;4949270;28;20552;-77
2024/01/19 09:48:48;;;;;;;5.90;2.17;;;;;;;-0.28;100.00;101330.94;4944914;28;20047;-79
2024/01/19 09:51:14;;;;;;;7.38;2.13;;;;;;;-0.30;100.00;101327.69;4938333;28;20129;-76
2024/01/19 09:53:48;;;;;;;6.07;1.90;;;;;;;-0.33;100.00;101328.06;4955364;28;20143;-80
2024/01/19 09:56:14;;;;;;;6.32;2.33;;;;;;;-0.36;100.00;101336.31;4941943;28;20041;-75
2024/01/19 09:58:42;;;;;;;6.72;1.58;;;;;;;-0.38;100.00;101346.22;4955979;28;20039;-79
2024/01/19 10:01:07;;;;;;;9.00;2.08;;;;;;;-0.37;100.00;101342.56;4947790;28;20047;-79
2024/01/19 10:03:34;;;;;;;7.85;2.20;;;;;;;-0.39;100.00;101344.59;4959495;28;20042;-75
2024/01/19 10:06:00;;;;;;;7.28;2.00;;;;;;;-0.35;100.00;101340.56;4931757;28;20036;-79
2024/01/19 10:08:26;;;;;;;7.50;1.60;;;;;;;-0.28;100.00;101338.03;4936989;28;20339;-79
2024/01/19 10:10:53;;;;;;;8.55;1.88;;;;;;;-0.19;100.00;101336.94;4959088;28;20043;-78
2024/01/19 10:13:19;;;;;;;7.47;2.03;;;;;;;-0.13;100.00;101322.22;4936719;28;20067;-78
2024/01/19 10:15:45;;;;;;;9.88;2.60;;;;;;;-0.07;100.00;101339.88;4938769;28;20070;-76
2024/01/19 10:18:11;;;;;;;8.80;2.42;;;;;;;-0.01;100.00;101342.59;4934781;28;20322;-80
2024/01/19 10:20:39;;;;;;;7.43;1.35;;;;;;;0.03;100.00;101342.25;4956066;28;20066;-82
2024/01/19 10:23:23;;;;;;;6.78;1.73;;;;;;;0.03;100.00;101342.25;4955710;28;20046;-81
2024/01/19 10:25:50;;;;;;;5.05;2.10;;;;;;;0.04;100.00;101344.69;4959724;28;20039;-80
2024/01/19 10:28:29;;;;;;;6.80;2.58;;;;;;;0.05;100.00;101346.31;4958585;28;20761;-79
2024/01/19 10:31:30;;;;;;;4.72;1.48;;;;;;;0.13;100.00;101348.84;4962695;28;20042;-81
2024/01/19 10:33:56;;;;;;;9.45;1.80;;;;;;;0.18;100.00;101361.47;4944503;28;20042;-79
2024/01/19 10:36:23;;;;;;;8.48;2.40;;;;;;;0.26;100.00;101367.41;4956291;28;20336;-80
2024/01/19 10:38:50;;;;;;;;;;;;;;;0.28;100.00;101366.44;4949225;28;20043;-81
2024/01/19 10:41:17;;;;;;;9.98;2.45;;;;;;;0.34;100.00;101357.75;4935110;28;19942;-81
2024/01/19 10:43:43;;;;;;;6.72;1.77;;;;;;;0.41;100.00;101371.84;4965258;28;20685;-84
2024/01/19 10:46:19;;;;;;;7.32;2.15;;;;;;;0.48;100.00;101362.19;4942270;28;20588;-82
2024/01/19 10:48:50;;;;;;;8.35;1.95;;;;;;;0.59;100.00;101364.31;4961612;28;20066;-83
2024/01/19 10:51:20;;;;;;;5.43;2.20;;;;;;;0.56;100.00;101364.69;4945317;28;20027;-84
2024/01/19 10:53:49;;;;;;;8.50;2.22;;;;;;;0.61;100.00;101378.13;4966733;28;20046;-80
2024/01/19 10:56:21;;;;;;;10.13;2.78;;;;;;;0.62;100.00;101373.69;4943893;28;20066;-79
2024/01/19 10:58:48;;;;;;;6.30;1.67;;;;;;;0.63;100.00;101375.31;4955241;28;20049;-84
2024/01/19 11:01:15;;;;;;;6.30;2.25;;;;;;;0.65;100.00;101368.81;4962803;28;20042;-83
2024/01/19 11:03:43;;;;;;;10.18;2.00;;;;;;;0.69;100.00;101367.47;4943819;28;20047;-83
2024/01/19 11:06:09;;;;;;;6.43;2.17;;;;;;;0.73;100.00;101366.06;4964115;28;20499;-81
2024/01/19 11:08:36;;;;;;;3.92;1.63;;;;;;;0.79;100.00;101362.66;4955410;28;20043;-85
2024/01/19 11:11:06;;;;;;;9.32;2.35;;;;;;;0.86;100.00;101370.63;4958758;28;20070;-82
2024/01/19 11:13:38;;;;;;;5.80;1.60;;;;;;;0.95;100.00;101368.66;4959669;28;20061;-81
2024/01/19 11:16:10;;;;;;;8.30;1.70;;;;;;;1.14;100.00;101377.75;4978826;28;20047;-83
2024/01/19 11:18:36;;;;;;;4.88;1.30;;;;;;;1.18;100.00;101377.19;4949006;28;20050;-85